sensor_id;sensor_type;location;lat;lon;timestamp;pressure;altitude;pressure_sealevel;temperature;humidity
29733;BME280;16643;43.158;25.302;2023-06-04T00:02:03;98265.97;;;18.11;100.00
29733;BME280;16643;43.158;25.302;2023-06-04T00:04:29;98220.19;;;17.84;100.00
29733;BME280;16643;43.158;25.302;2023-06-04T00:06:55;98216.53;;;17.86;100.00
29733;BME280;16643;43.158;25.302;2023-06-04T00:09:21;98217.31;;;17.72;100.00
29733;BME280;16643;43.158;25.302;2023-06-04T00:11:47;98257.66;;;18.03;100.00
29733;BME280;16643;43.158;25.302;2023-06-04T00:14:13;98245.78;;;17.96;100.00
29733;BME280;16643;43.158;25.302;2023-06-04T00:16:40;98243.69;;;17.87;100.00
29733;BME280;16643;43.158;25.302;2023-06-04T00:19:06;98254.34;;;17.99;100.00
29733;BME280;16643;43.158;25.302;2023-06-04T00:21:32;98266.22;;;18.06;100.00
29733;BME280;16643;43.158;25.302;2023-06-04T00:23:59;98250.78;;;18.00;100.00
29733;BME280;16643;43.158;25.302;2023-06-04T00:26:25;98242.44;;;17.78;100.00
29733;BME280;16643;43.158;25.302;2023-06-04T00:28:50;98248.53;;;17.78;100.00
29733;BME280;16643;43.158;25.302;2023-06-04T00:31:16;98211.91;;;17.60;100.00
29733;BME280;16643;43.158;25.302;2023-06-04T00:33:42;98247.53;;;17.65;100.00
29733;BME280;16643;43.158;25.302;2023-06-04T00:36:07;98239.31;;;17.56;100.00
29733;BME280;16643;43.158;25.302;2023-06-04T00:38:33;98242.28;;;17.65;100.00
29733;BME280;16643;43.158;25.302;2023-06-04T00:40:59;98263.66;;;17.75;100.00
29733;BME280;16643;43.158;25.302;2023-06-04T00:43:24;98235.81;;;17.55;100.00
29733;BME280;16643;43.158;25.302;2023-06-04T00:45:54;98211.22;;;17.40;100.00
29733;BME280;16643;43.158;25.302;2023-06-04T00:48:20;98230.56;;;17.55;100.00
29733;BME280;16643;43.158;25.302;2023-06-04T00:50:47;98198.84;;;17.27;100.00
29733;BME280;16643;43.158;25.302;2023-06-04T00:53:13;98251.19;;;17.63;100.00
29733;BME280;16643;43.158;25.302;2023-06-04T00:55:39;98212.00;;;17.42;100.00
29733;BME280;16643;43.158;25.302;2023-06-04T00:58:05;98244.75;;;17.37;100.00
29733;BME280;16643;43.158;25.302;2023-06-04T01:00:31;98253.91;;;17.46;100.00
29733;BME280;16643;43.158;25.302;2023-06-04T01:02:58;98234.06;;;17.24;100.00
29733;BME280;16643;43.158;25.302;2023-06-04T01:08:39;98213.19;;;17.05;100.00
29733;BME280;16643;43.158;25.302;2023-06-04T01:11:08;98209.28;;;16.97;100.00
29733;BME280;16643;43.158;25.302;2023-06-04T01:13:33;98252.44;;;17.09;100.00
29733;BME280;16643;43.158;25.302;2023-06-04T01:15:59;98266.13;;;16.98;100.00
29733;BME280;16643;43.158;25.302;2023-06-04T01:18:27;98256.81;;;16.92;100.00
29733;BME280;16643;43.158;25.302;2023-06-04T01:23:53;98247.91;;;16.95;100.00
29733;BME280;16643;43.158;25.302;2023-06-04T01:26:29;98260.06;;;17.13;100.00
29733;BME280;16643;43.158;25.302;2023-06-04T01:28:56;98254.34;;;17.05;100.00
29733;BME280;16643;43.158;25.302;2023-06-04T01:31:23;98267.75;;;17.16;100.00
29733;BME280;16643;43.158;25.302;2023-06-04T01:33:56;98259.22;;;17.13;100.00
29733;BME280;16643;43.158;25.302;2023-06-04T01:36:23;98276.00;;;17.10;100.00
29733;BME280;16643;43.158;25.302;2023-06-04T01:38:49;98255.22;;;17.05;100.00
29733;BME280;16643;43.158;25.302;2023-06-04T01:41:16;98235.13;;;16.89;100.00
29733;BME280;16643;43.158;25.302;2023-06-04T01:43:44;98261.31;;;16.90;100.00
29733;BME280;16643;43.158;25.302;2023-06-04T01:46:10;98259.25;;;16.95;100.00
29733;BME280;16643;43.158;25.302;2023-06-04T01:48:35;98258.69;;;17.06;100.00
29733;BME280;16643;43.158;25.302;2023-06-04T01:51:01;98256.97;;;17.05;100.00
29733;BME280;16643;43.158;25.302;2023-06-04T01:53:27;98259.03;;;17.00;100.00
29733;BME280;16643;43.158;25.302;2023-06-04T01:55:53;98270.88;;;17.07;100.00
29733;BME280;16643;43.158;25.302;2023-06-04T01:58:22;98222.03;;;16.72;100.00
29733;BME280;16643;43.158;25.302;2023-06-04T02:00:54;98255.44;;;16.85;100.00
29733;BME280;16643;43.158;25.302;2023-06-04T02:03:21;98279.22;;;16.82;100.00
29733;BME280;16643;43.158;25.302;2023-06-04T02:05:47;98294.88;;;16.68;100.00
29733;BME280;16643;43.158;25.302;2023-06-04T02:08:17;98277.09;;;16.73;100.00
29733;BME280;16643;43.158;25.302;2023-06-04T02:10:46;98268.91;;;16.45;100.00
29733;BME280;16643;43.158;25.302;2023-06-04T02:13:12;98297.22;;;16.38;100.00
29733;BME280;16643;43.158;25.302;2023-06-04T02:15:38;98296.47;;;16.36;100.00
29733;BME280;16643;43.158;25.302;2023-06-04T02:18:18;98285.44;;;16.29;100.00
29733;BME280;16643;43.158;25.302;2023-06-04T02:20:48;98290.06;;;16.24;100.00
29733;BME280;16643;43.158;25.302;2023-06-04T02:23:15;98256.63;;;15.93;100.00
29733;BME280;16643;43.158;25.302;2023-06-04T02:25:42;98282.94;;;15.92;100.00
29733;BME280;16643;43.158;25.302;2023-06-04T02:28:10;98285.16;;;15.82;100.00
29733;BME280;16643;43.158;25.302;2023-06-04T02:30:36;98295.03;;;15.77;100.00
29733;BME280;16643;43.158;25.302;2023-06-04T02:33:01;98298.94;;;15.69;100.00
29733;BME280;16643;43.158;25.302;2023-06-04T02:35:28;98308.59;;;15.85;100.00
29733;BME280;16643;43.158;25.302;2023-06-04T02:37:54;98298.56;;;15.76;100.00
29733;BME280;16643;43.158;25.302;2023-06-04T02:40:21;98284.03;;;15.69;100.00
29733;BME280;16643;43.158;25.302;2023-06-04T02:42:47;74314.63;;;-142.82;100.00
29733;BME280;16643;43.158;25.302;2023-06-04T02:45:22;98266.06;;;15.43;100.00
29733;BME280;16643;43.158;25.302;2023-06-04T02:47:48;98320.19;;;15.63;100.00
29733;BME280;16643;43.158;25.302;2023-06-04T02:50:14;98291.69;;;15.36;100.00
29733;BME280;16643;43.158;25.302;2023-06-04T02:52:40;98241.38;;;15.11;100.00
29733;BME280;16643;43.158;25.302;2023-06-04T02:55:07;98325.50;;;15.61;100.00
29733;BME280;16643;43.158;25.302;2023-06-04T02:57:34;98326.25;;;15.44;100.00
29733;BME280;16643;43.158;25.302;2023-06-04T03:00:00;98325.03;;;15.51;100.00
29733;BME280;16643;43.158;25.302;2023-06-04T03:02:26;98327.09;;;15.45;100.00
29733;BME280;16643;43.158;25.302;2023-06-04T03:04:53;98361.72;;;15.51;100.00
29733;BME280;16643;43.158;25.302;2023-06-04T03:07:21;74395.91;;;-142.82;100.00
29733;BME280;16643;43.158;25.302;2023-06-04T03:09:48;98263.63;;;14.82;100.00
29733;BME280;16643;43.158;25.302;2023-06-04T03:12:14;98320.47;;;14.99;100.00
29733;BME280;16643;43.158;25.302;2023-06-04T03:14:40;74431.56;;;-142.82;100.00
29733;BME280;16643;43.158;25.302;2023-06-04T03:17:06;98362.53;;;15.14;100.00
29733;BME280;16643;43.158;25.302;2023-06-04T03:19:37;98358.00;;;15.18;100.00
29733;BME280;16643;43.158;25.302;2023-06-04T03:22:04;98328.84;;;15.07;100.00
29733;BME280;16643;43.158;25.302;2023-06-04T03:24:36;98328.84;;;-142.82;100.00
29733;BME280;16643;43.158;25.302;2023-06-04T03:27:03;98325.56;;;15.02;100.00
29733;BME280;16643;43.158;25.302;2023-06-04T03:29:29;98356.75;;;15.26;100.00
29733;BME280;16643;43.158;25.302;2023-06-04T03:31:56;98331.53;;;15.05;100.00
29733;BME280;16643;43.158;25.302;2023-06-04T03:34:22;98364.84;;;15.02;100.00
29733;BME280;16643;43.158;25.302;2023-06-04T03:36:54;98355.59;;;15.13;100.00
29733;BME280;16643;43.158;25.302;2023-06-04T03:39:20;98373.25;;;15.29;100.00
29733;BME280;16643;43.158;25.302;2023-06-04T03:41:47;98372.25;;;15.31;100.00
29733;BME280;16643;43.158;25.302;2023-06-04T03:44:13;98365.94;;;15.35;100.00
29733;BME280;16643;43.158;25.302;2023-06-04T03:46:43;98357.34;;;15.33;100.00
29733;BME280;16643;43.158;25.302;2023-06-04T03:49:09;98356.25;;;15.37;100.00
29733;BME280;16643;43.158;25.302;2023-06-04T03:51:39;98389.53;;;15.55;100.00
29733;BME280;16643;43.158;25.302;2023-06-04T03:54:05;98351.31;;;15.50;100.00
29733;BME280;16643;43.158;25.302;2023-06-04T03:56:31;98377.19;;;15.76;100.00
29733;BME280;16643;43.158;25.302;2023-06-04T03:58:57;98367.09;;;15.69;100.00
29733;BME280;16643;43.158;25.302;2023-06-04T04:01:23;98378.91;;;15.77;100.00
29733;BME280;16643;43.158;25.302;2023-06-04T04:03:50;98364.38;;;15.70;100.00
29733;BME280;16643;43.158;25.302;2023-06-04T04:06:16;98399.50;;;15.85;100.00
29733;BME280;16643;43.158;25.302;2023-06-04T04:08:42;98401.28;;;15.84;100.00
29733;BME280;16643;43.158;25.302;2023-06-04T04:11:14;98385.84;;;15.78;100.00
29733;BME280;16643;43.158;25.302;2023-06-04T04:13:40;98342.13;;;15.60;100.00
29733;BME280;16643;43.158;25.302;2023-06-04T04:16:06;98392.72;;;16.00;100.00
29733;BME280;16643;43.158;25.302;2023-06-04T04:18:33;98378.25;;;15.91;100.00
29733;BME280;16643;43.158;25.302;2023-06-04T04:20:59;98398.09;;;15.96;100.00
29733;BME280;16643;43.158;25.302;2023-06-04T04:23:25;74366.16;;;-142.82;100.00
29733;BME280;16643;43.158;25.302;2023-06-04T04:25:52;98335.88;;;15.44;100.00
29733;BME280;16643;43.158;25.302;2023-06-04T04:28:19;98374.44;;;15.79;100.00
29733;BME280;16643;43.158;25.302;2023-06-04T04:30:46;98416.84;;;16.06;100.00
29733;BME280;16643;43.158;25.302;2023-06-04T04:33:12;98416.00;;;16.06;100.00
29733;BME280;16643;43.158;25.302;2023-06-04T04:35:44;98413.88;;;15.95;100.00
29733;BME280;16643;43.158;25.302;2023-06-04T04:38:10;98400.91;;;15.92;100.00
29733;BME280;16643;43.158;25.302;2023-06-04T04:40:36;98389.47;;;15.76;100.00
29733;BME280;16643;43.158;25.302;2023-06-04T04:43:02;98409.06;;;15.86;100.00
29733;BME280;16643;43.158;25.302;2023-06-04T04:45:27;98403.78;;;15.87;100.00
29733;BME280;16643;43.158;25.302;2023-06-04T04:47:53;98385.41;;;15.87;100.00
29733;BME280;16643;43.158;25.302;2023-06-04T04:50:18;98385.41;;;15.87;100.00
29733;BME280;16643;43.158;25.302;2023-06-04T04:52:44;98402.47;;;15.96;100.00
29733;BME280;16643;43.158;25.302;2023-06-04T04:55:10;98390.44;;;15.92;100.00
29733;BME280;16643;43.158;25.302;2023-06-04T04:57:38;98428.00;;;16.11;100.00
29733;BME280;16643;43.158;25.302;2023-06-04T05:00:04;98411.19;;;15.96;100.00
29733;BME280;16643;43.158;25.302;2023-06-04T05:02:32;98397.88;;;15.82;100.00
29733;BME280;16643;43.158;25.302;2023-06-04T05:04:57;98410.72;;;15.88;100.00
29733;BME280;16643;43.158;25.302;2023-06-04T05:07:23;98393.84;;;15.94;100.00
29733;BME280;16643;43.158;25.302;2023-06-04T05:09:54;98424.38;;;15.95;100.00
29733;BME280;16643;43.158;25.302;2023-06-04T05:12:20;98408.22;;;15.85;100.00
29733;BME280;16643;43.158;25.302;2023-06-04T05:14:45;98408.88;;;15.90;100.00
29733;BME280;16643;43.158;25.302;2023-06-04T05:17:11;98422.16;;;16.05;100.00
29733;BME280;16643;43.158;25.302;2023-06-04T05:19:38;98435.97;;;16.27;100.00
29733;BME280;16643;43.158;25.302;2023-06-04T05:22:04;98440.47;;;16.25;100.00
29733;BME280;16643;43.158;25.302;2023-06-04T05:24:31;98418.28;;;16.13;100.00
29733;BME280;16643;43.158;25.302;2023-06-04T05:26:58;98416.41;;;16.15;100.00
29733;BME280;16643;43.158;25.302;2023-06-04T05:29:23;98435.41;;;16.20;100.00
29733;BME280;16643;43.158;25.302;2023-06-04T05:31:49;98420.47;;;16.22;100.00
29733;BME280;16643;43.158;25.302;2023-06-04T05:34:15;98413.38;;;16.24;100.00
29733;BME280;16643;43.158;25.302;2023-06-04T05:36:44;98435.81;;;16.30;100.00
29733;BME280;16643;43.158;25.302;2023-06-04T05:39:10;98425.91;;;16.18;100.00
29733;BME280;16643;43.158;25.302;2023-06-04T05:41:36;98438.25;;;16.34;100.00
29733;BME280;16643;43.158;25.302;2023-06-04T05:44:02;98454.19;;;16.30;100.00
29733;BME280;16643;43.158;25.302;2023-06-04T05:46:29;98429.53;;;16.15;100.00
29733;BME280;16643;43.158;25.302;2023-06-04T05:48:54;98422.38;;;16.19;100.00
29733;BME280;16643;43.158;25.302;2023-06-04T05:51:20;98432.16;;;16.15;100.00
29733;BME280;16643;43.158;25.302;2023-06-04T05:53:46;98463.63;;;16.34;100.00
29733;BME280;16643;43.158;25.302;2023-06-04T05:56:12;98441.31;;;16.07;100.00
29733;BME280;16643;43.158;25.302;2023-06-04T05:58:38;98398.72;;;15.83;100.00
29733;BME280;16643;43.158;25.302;2023-06-04T06:01:05;98466.38;;;16.31;100.00
29733;BME280;16643;43.158;25.302;2023-06-04T06:03:37;98448.22;;;16.26;100.00
29733;BME280;16643;43.158;25.302;2023-06-04T06:06:03;98434.53;;;16.03;100.00
29733;BME280;16643;43.158;25.302;2023-06-04T06:08:31;98430.63;;;16.11;100.00
29733;BME280;16643;43.158;25.302;2023-06-04T06:10:56;98447.47;;;16.06;100.00
29733;BME280;16643;43.158;25.302;2023-06-04T06:13:22;98447.88;;;16.15;100.00
29733;BME280;16643;43.158;25.302;2023-06-04T06:15:47;98455.91;;;16.31;100.00
29733;BME280;16643;43.158;25.302;2023-06-04T06:18:13;98411.88;;;16.19;100.00
29733;BME280;16643;43.158;25.302;2023-06-04T06:20:39;98485.06;;;16.61;100.00
29733;BME280;16643;43.158;25.302;2023-06-04T06:23:08;98478.84;;;16.45;100.00
29733;BME280;16643;43.158;25.302;2023-06-04T06:25:33;98448.16;;;16.28;100.00
29733;BME280;16643;43.158;25.302;2023-06-04T06:27:59;98461.47;;;16.42;100.00
29733;BME280;16643;43.158;25.302;2023-06-04T06:30:25;98470.41;;;16.57;100.00
29733;BME280;16643;43.158;25.302;2023-06-04T06:32:50;98456.94;;;16.46;100.00
29733;BME280;16643;43.158;25.302;2023-06-04T06:35:17;98456.44;;;16.38;100.00
29733;BME280;16643;43.158;25.302;2023-06-04T06:37:43;98487.28;;;16.51;100.00
29733;BME280;16643;43.158;25.302;2023-06-04T06:40:10;98486.25;;;16.73;100.00
29733;BME280;16643;43.158;25.302;2023-06-04T06:42:35;98462.81;;;16.69;100.00
29733;BME280;16643;43.158;25.302;2023-06-04T06:45:02;98477.47;;;16.74;100.00
29733;BME280;16643;43.158;25.302;2023-06-04T06:47:28;98487.31;;;16.87;100.00
29733;BME280;16643;43.158;25.302;2023-06-04T06:49:54;98468.06;;;16.69;100.00
29733;BME280;16643;43.158;25.302;2023-06-04T06:52:20;98493.78;;;16.80;100.00
29733;BME280;16643;43.158;25.302;2023-06-04T06:54:46;98496.69;;;16.74;100.00
29733;BME280;16643;43.158;25.302;2023-06-04T06:57:11;98471.53;;;16.70;100.00
29733;BME280;16643;43.158;25.302;2023-06-04T06:59:37;98477.13;;;16.81;100.00
29733;BME280;16643;43.158;25.302;2023-06-04T07:02:04;98497.16;;;16.82;100.00
29733;BME280;16643;43.158;25.302;2023-06-04T07:04:30;98482.84;;;16.70;100.00
29733;BME280;16643;43.158;25.302;2023-06-04T07:06:56;98483.97;;;16.66;100.00
29733;BME280;16643;43.158;25.302;2023-06-04T07:09:22;98482.84;;;16.70;100.00
29733;BME280;16643;43.158;25.302;2023-06-04T07:11:47;98510.47;;;16.96;100.00
29733;BME280;16643;43.158;25.302;2023-06-04T07:14:14;98511.31;;;16.97;100.00
29733;BME280;16643;43.158;25.302;2023-06-04T07:16:40;98514.66;;;17.00;100.00
29733;BME280;16643;43.158;25.302;2023-06-04T07:19:05;98474.38;;;16.83;100.00
29733;BME280;16643;43.158;25.302;2023-06-04T07:21:31;98480.66;;;16.97;100.00
29733;BME280;16643;43.158;25.302;2023-06-04T07:23:56;98517.84;;;17.24;100.00
29733;BME280;16643;43.158;25.302;2023-06-04T07:26:22;98519.22;;;17.31;100.00
29733;BME280;16643;43.158;25.302;2023-06-04T07:28:48;98493.63;;;17.18;100.00
29733;BME280;16643;43.158;25.302;2023-06-04T07:31:17;98533.81;;;17.54;100.00
29733;BME280;16643;43.158;25.302;2023-06-04T07:33:43;98527.63;;;17.55;100.00
29733;BME280;16643;43.158;25.302;2023-06-04T07:36:15;98517.13;;;17.55;100.00
29733;BME280;16643;43.158;25.302;2023-06-04T07:38:42;98521.28;;;17.76;100.00
29733;BME280;16643;43.158;25.302;2023-06-04T07:41:08;98527.53;;;17.91;100.00
29733;BME280;16643;43.158;25.302;2023-06-04T07:43:34;98540.34;;;17.97;100.00
29733;BME280;16643;43.158;25.302;2023-06-04T07:46:01;98515.88;;;17.62;100.00
29733;BME280;16643;43.158;25.302;2023-06-04T07:48:27;98535.84;;;17.49;100.00
29733;BME280;16643;43.158;25.302;2023-06-04T07:51:00;98526.03;;;17.35;100.00
29733;BME280;16643;43.158;25.302;2023-06-04T07:53:28;98514.72;;;17.51;100.00
29733;BME280;16643;43.158;25.302;2023-06-04T07:55:56;98513.31;;;17.61;100.00
29733;BME280;16643;43.158;25.302;2023-06-04T07:58:22;98532.44;;;17.97;100.00
29733;BME280;16643;43.158;25.302;2023-06-04T08:00:48;98500.81;;;17.99;100.00
29733;BME280;16643;43.158;25.302;2023-06-04T08:03:14;98549.41;;;18.25;100.00
29733;BME280;16643;43.158;25.302;2023-06-04T08:05:43;98523.41;;;18.19;100.00
29733;BME280;16643;43.158;25.302;2023-06-04T08:08:09;98552.91;;;18.25;100.00
29733;BME280;16643;43.158;25.302;2023-06-04T08:10:35;98525.66;;;18.26;100.00
29733;BME280;16643;43.158;25.302;2023-06-04T08:13:00;98531.25;;;18.51;100.00
29733;BME280;16643;43.158;25.302;2023-06-04T08:15:26;98527.44;;;18.57;100.00
29733;BME280;16643;43.158;25.302;2023-06-04T08:17:51;98517.69;;;18.59;100.00
29733;BME280;16643;43.158;25.302;2023-06-04T08:20:17;98534.59;;;18.71;100.00
29733;BME280;16643;43.158;25.302;2023-06-04T08:22:43;98530.66;;;18.78;100.00
29733;BME280;16643;43.158;25.302;2023-06-04T08:25:09;98545.41;;;18.96;100.00
29733;BME280;16643;43.158;25.302;2023-06-04T08:27:46;98531.44;;;18.96;100.00
29733;BME280;16643;43.158;25.302;2023-06-04T08:30:26;98548.81;;;19.14;100.00
29733;BME280;16643;43.158;25.302;2023-06-04T08:32:54;98541.38;;;19.20;100.00
29733;BME280;16643;43.158;25.302;2023-06-04T08:35:26;98536.19;;;19.19;100.00
29733;BME280;16643;43.158;25.302;2023-06-04T08:37:53;98534.84;;;19.28;100.00
29733;BME280;16643;43.158;25.302;2023-06-04T08:40:18;98532.66;;;19.50;100.00
29733;BME280;16643;43.158;25.302;2023-06-04T08:42:44;98549.97;;;19.84;100.00
29733;BME280;16643;43.158;25.302;2023-06-04T08:45:13;98516.09;;;19.62;100.00
29733;BME280;16643;43.158;25.302;2023-06-04T08:47:48;98513.66;;;20.02;100.00
29733;BME280;16643;43.158;25.302;2023-06-04T08:50:17;98522.41;;;20.30;100.00
29733;BME280;16643;43.158;25.302;2023-06-04T08:52:43;98521.00;;;20.80;100.00
29733;BME280;16643;43.158;25.302;2023-06-04T08:55:11;98510.22;;;20.83;100.00
29733;BME280;16643;43.158;25.302;2023-06-04T08:57:39;73837.03;;;-142.82;100.00
29733;BME280;16643;43.158;25.302;2023-06-04T09:00:06;98567.66;;;20.67;100.00
29733;BME280;16643;43.158;25.302;2023-06-04T09:02:36;98568.91;;;20.88;100.00
29733;BME280;16643;43.158;25.302;2023-06-04T09:05:14;98559.19;;;20.48;100.00
29733;BME280;16643;43.158;25.302;2023-06-04T09:07:46;98544.69;;;20.41;100.00
29733;BME280;16643;43.158;25.302;2023-06-04T09:10:21;98544.03;;;20.37;100.00
29733;BME280;16643;43.158;25.302;2023-06-04T09:12:57;98562.75;;;20.61;100.00
29733;BME280;16643;43.158;25.302;2023-06-04T09:15:26;98552.13;;;20.48;100.00
29733;BME280;16643;43.158;25.302;2023-06-04T09:17:52;98584.09;;;20.58;100.00
29733;BME280;16643;43.158;25.302;2023-06-04T09:20:24;98573.75;;;20.82;100.00
29733;BME280;16643;43.158;25.302;2023-06-04T09:22:49;98548.69;;;20.75;100.00
29733;BME280;16643;43.158;25.302;2023-06-04T09:25:24;98549.97;;;20.82;100.00
29733;BME280;16643;43.158;25.302;2023-06-04T09:27:51;98553.19;;;20.87;100.00
29733;BME280;16643;43.158;25.302;2023-06-04T09:30:17;98557.47;;;20.75;100.00
29733;BME280;16643;43.158;25.302;2023-06-04T09:32:45;98577.34;;;20.81;100.00
29733;BME280;16643;43.158;25.302;2023-06-04T09:35:13;98560.03;;;20.62;100.00
29733;BME280;16643;43.158;25.302;2023-06-04T09:37:39;98583.50;;;20.67;100.00
29733;BME280;16643;43.158;25.302;2023-06-04T09:40:06;98566.88;;;20.79;100.00
29733;BME280;16643;43.158;25.302;2023-06-04T09:42:46;98573.31;;;21.02;100.00
29733;BME280;16643;43.158;25.302;2023-06-04T09:47:55;98547.00;;;21.27;100.00
29733;BME280;16643;43.158;25.302;2023-06-04T09:50:25;98556.44;;;21.17;100.00
29733;BME280;16643;43.158;25.302;2023-06-04T09:52:51;98514.94;;;21.45;96.57
29733;BME280;16643;43.158;25.302;2023-06-04T09:55:19;98578.97;;;22.27;100.00
29733;BME280;16643;43.158;25.302;2023-06-04T09:57:48;98582.66;;;22.37;94.42
29733;BME280;16643;43.158;25.302;2023-06-04T10:00:22;98566.66;;;22.39;97.77
29733;BME280;16643;43.158;25.302;2023-06-04T10:02:49;98548.84;;;22.41;97.66
29733;BME280;16643;43.158;25.302;2023-06-04T10:05:15;98560.28;;;22.54;90.79
29733;BME280;16643;43.158;25.302;2023-06-04T10:07:45;98545.25;;;22.42;90.15
29733;BME280;16643;43.158;25.302;2023-06-04T10:10:21;98577.50;;;22.85;90.11
29733;BME280;16643;43.158;25.302;2023-06-04T10:12:51;98571.03;;;23.13;86.80
29733;BME280;16643;43.158;25.302;2023-06-04T10:15:20;98552.72;;;23.45;94.04
29733;BME280;16643;43.158;25.302;2023-06-04T10:17:50;98568.84;;;23.42;90.24
29733;BME280;16643;43.158;25.302;2023-06-04T10:20:16;98560.91;;;23.18;92.58
29733;BME280;16643;43.158;25.302;2023-06-04T10:22:45;98559.41;;;23.38;89.51
29733;BME280;16643;43.158;25.302;2023-06-04T10:25:11;98578.97;;;23.61;87.94
29733;BME280;16643;43.158;25.302;2023-06-04T10:27:38;98560.91;;;23.77;85.00
29733;BME280;16643;43.158;25.302;2023-06-04T10:30:04;98574.28;;;23.75;88.02
29733;BME280;16643;43.158;25.302;2023-06-04T10:32:34;98537.28;;;23.26;89.39
29733;BME280;16643;43.158;25.302;2023-06-04T10:35:06;98566.09;;;23.20;88.32
29733;BME280;16643;43.158;25.302;2023-06-04T10:37:33;98543.44;;;23.27;89.13
29733;BME280;16643;43.158;25.302;2023-06-04T10:39:59;98564.03;;;23.82;88.83
29733;BME280;16643;43.158;25.302;2023-06-04T10:42:25;98542.56;;;23.85;87.49
29733;BME280;16643;43.158;25.302;2023-06-04T10:44:54;98566.19;;;23.66;82.53
29733;BME280;16643;43.158;25.302;2023-06-04T10:47:26;98563.94;;;23.83;85.56
29733;BME280;16643;43.158;25.302;2023-06-04T10:49:53;98563.88;;;23.02;82.31
29733;BME280;16643;43.158;25.302;2023-06-04T10:52:20;98568.59;;;23.10;79.00
29733;BME280;16643;43.158;25.302;2023-06-04T10:54:46;98565.22;;;23.08;83.20
29733;BME280;16643;43.158;25.302;2023-06-04T10:57:14;98559.31;;;23.39;82.79
29733;BME280;16643;43.158;25.302;2023-06-04T10:59:41;98557.59;;;23.38;88.47
29733;BME280;16643;43.158;25.302;2023-06-04T11:02:07;98557.34;;;23.30;86.60
29733;BME280;16643;43.158;25.302;2023-06-04T11:04:33;98549.31;;;23.43;91.37
29733;BME280;16643;43.158;25.302;2023-06-04T11:07:07;98549.31;;;23.78;84.96
29733;BME280;16643;43.158;25.302;2023-06-04T11:09:37;98572.41;;;24.00;85.81
29733;BME280;16643;43.158;25.302;2023-06-04T11:12:06;98544.75;;;23.91;82.90
29733;BME280;16643;43.158;25.302;2023-06-04T11:14:32;98541.44;;;24.22;87.28
29733;BME280;16643;43.158;25.302;2023-06-04T11:17:12;98549.84;;;24.50;77.36
29733;BME280;16643;43.158;25.302;2023-06-04T11:19:38;98562.69;;;24.56;79.21
29733;BME280;16643;43.158;25.302;2023-06-04T11:22:05;98536.44;;;24.40;80.08
29733;BME280;16643;43.158;25.302;2023-06-04T11:24:32;98558.94;;;24.58;80.29
29733;BME280;16643;43.158;25.302;2023-06-04T11:26:58;98544.09;;;23.65;75.52
29733;BME280;16643;43.158;25.302;2023-06-04T11:29:25;98552.50;;;24.16;80.49
29733;BME280;16643;43.158;25.302;2023-06-04T11:31:51;98526.31;;;24.23;76.13
29733;BME280;16643;43.158;25.302;2023-06-04T11:34:28;98553.13;;;24.42;75.95
29733;BME280;16643;43.158;25.302;2023-06-04T11:36:55;98532.09;;;24.39;78.59
29733;BME280;16643;43.158;25.302;2023-06-04T11:39:34;98540.34;;;24.47;73.27
29733;BME280;16643;43.158;25.302;2023-06-04T11:42:04;98534.72;;;23.48;76.96
29733;BME280;16643;43.158;25.302;2023-06-04T11:44:30;98556.31;;;23.68;78.83
29733;BME280;16643;43.158;25.302;2023-06-04T11:54:42;98561.31;;;24.17;77.80
29733;BME280;16643;43.158;25.302;2023-06-04T11:57:08;98560.28;;;23.73;78.79
29733;BME280;16643;43.158;25.302;2023-06-04T11:59:34;98564.44;;;23.88;82.02
29733;BME280;16643;43.158;25.302;2023-06-04T12:02:00;98563.34;;;23.91;82.13
29733;BME280;16643;43.158;25.302;2023-06-04T12:04:29;98561.56;;;23.92;81.51
29733;BME280;16643;43.158;25.302;2023-06-04T12:06:57;98559.09;;;23.77;80.99
29733;BME280;16643;43.158;25.302;2023-06-04T12:09:32;98559.22;;;23.76;83.13
29733;BME280;16643;43.158;25.302;2023-06-04T12:12:02;98564.78;;;23.84;84.52
29733;BME280;16643;43.158;25.302;2023-06-04T12:14:28;98571.00;;;23.61;79.87
29733;BME280;16643;43.158;25.302;2023-06-04T12:19:27;98565.09;;;23.33;87.66
29733;BME280;16643;43.158;25.302;2023-06-04T12:22:03;98571.09;;;23.24;84.63
29733;BME280;16643;43.158;25.302;2023-06-04T12:24:31;98564.69;;;23.03;83.32
29733;BME280;16643;43.158;25.302;2023-06-04T12:27:06;98574.00;;;23.08;86.66
29733;BME280;16643;43.158;25.302;2023-06-04T12:29:34;98570.28;;;23.11;87.17
29733;BME280;16643;43.158;25.302;2023-06-04T12:32:04;98570.78;;;23.16;86.75
29733;BME280;16643;43.158;25.302;2023-06-04T12:34:31;98570.34;;;23.22;86.33
29733;BME280;16643;43.158;25.302;2023-06-04T12:36:57;98569.28;;;23.25;86.51
29733;BME280;16643;43.158;25.302;2023-06-04T12:39:23;98571.19;;;23.23;85.98
29733;BME280;16643;43.158;25.302;2023-06-04T12:41:49;98563.34;;;23.21;89.41
29733;BME280;16643;43.158;25.302;2023-06-04T12:44:14;98563.28;;;23.10;86.50
29733;BME280;16643;43.158;25.302;2023-06-04T12:46:40;98562.34;;;23.11;88.49
29733;BME280;16643;43.158;25.302;2023-06-04T12:49:06;98560.47;;;23.24;88.27
29733;BME280;16643;43.158;25.302;2023-06-04T12:51:31;98566.16;;;23.31;86.50
29733;BME280;16643;43.158;25.302;2023-06-04T12:53:57;98573.50;;;23.27;88.28
29733;BME280;16643;43.158;25.302;2023-06-04T12:56:24;98569.06;;;23.39;88.27
29733;BME280;16643;43.158;25.302;2023-06-04T12:58:51;98569.16;;;23.50;86.45
29733;BME280;16643;43.158;25.302;2023-06-04T13:01:16;98571.28;;;23.69;86.77
29733;BME280;16643;43.158;25.302;2023-06-04T13:03:43;98573.13;;;23.79;83.58